Time;durP1;ratioP1;P1;durP2;ratioP2;P2;SDS_P1;SDS_P2;PMS_P1;PMS_P2;Temp;Humidity;BMP_temperature;BMP_pressure;BME280_temperature;BME280_humidity;BME280_pressure;Samples;Min_cycle;Max_cycle;Signal;HPM_P1;HPM_P2
2022/06/26 00:01:33;;;;;;;0.43;0.43;;;19.60;99.90;;;;;;4993717;28;20459;-80
2022/06/26 00:04:00;;;;;;;1.90;0.50;;;19.60;99.90;;;;;;4993492;28;20443;-80
2022/06/26 00:06:28;;;;;;;0.50;0.40;;;19.50;99.90;;;;;;4993405;28;20460;-80
2022/06/26 00:08:55;;;;;;;0.67;0.60;;;19.50;99.90;;;;;;4993148;28;20488;-80
2022/06/26 00:11:22;;;;;;;0.40;0.33;;;19.40;99.90;;;;;;4993405;28;20436;-80
2022/06/26 00:13:49;;;;;;;0.53;0.50;;;19.40;99.90;;;;;;4993638;28;20464;-80
2022/06/26 00:16:16;;;;;;;0.60;0.60;;;19.40;99.90;;;;;;4993536;28;20829;-80
2022/06/26 00:18:43;;;;;;;0.43;0.43;;;19.30;99.90;;;;;;4993517;28;20491;-80
2022/06/26 00:21:10;;;;;;;0.83;0.50;;;19.30;99.90;;;;;;4993429;28;20461;-80
2022/06/26 00:23:38;;;;;;;0.50;0.47;;;19.30;99.90;;;;;;4993313;28;20436;-79
2022/06/26 00:26:06;;;;;;;0.60;0.60;;;19.30;99.90;;;;;;4995806;28;20476;-80
2022/06/26 00:28:33;;;;;;;0.50;0.40;;;19.30;99.90;;;;;;4996878;28;20507;-80
2022/06/26 00:31:00;;;;;;;1.33;0.53;;;19.30;99.90;;;;;;4997150;28;20452;-80
2022/06/26 00:33:27;;;;;;;1.30;0.57;;;19.30;99.90;;;;;;4997113;28;20457;-80
2022/06/26 00:35:54;;;;;;;0.80;0.80;;;19.30;99.90;;;;;;4997006;28;20526;-80
2022/06/26 00:38:21;;;;;;;0.60;0.40;;;19.30;99.90;;;;;;4996801;28;20437;-80
2022/06/26 00:40:49;;;;;;;0.70;0.70;;;19.30;99.90;;;;;;4996703;28;20460;-81
2022/06/26 00:43:16;;;;;;;0.80;0.60;;;19.20;99.90;;;;;;4996639;28;20948;-80
2022/06/26 00:45:43;;;;;;;0.40;0.40;;;19.20;99.90;;;;;;4996752;28;20464;-80
2022/06/26 00:48:10;;;;;;;0.70;0.70;;;19.20;99.90;;;;;;4996868;28;20495;-80
2022/06/26 00:50:37;;;;;;;0.70;0.47;;;19.30;99.90;;;;;;4996834;28;20432;-80
2022/06/26 00:53:05;;;;;;;0.60;0.60;;;19.30;99.90;;;;;;4996789;28;20440;-80
2022/06/26 00:55:33;;;;;;;0.60;0.53;;;19.30;99.90;;;;;;4997111;28;20479;-80
2022/06/26 00:58:01;;;;;;;0.53;0.47;;;19.20;99.90;;;;;;4996567;28;20448;-80
2022/06/26 01:00:28;;;;;;;0.70;0.50;;;19.20;99.90;;;;;;4996511;28;20528;-80
2022/06/26 01:02:55;;;;;;;0.50;0.50;;;19.20;99.90;;;;;;4996613;28;20445;-80
2022/06/26 01:05:22;;;;;;;0.60;0.60;;;19.20;99.90;;;;;;4996263;28;20821;-80
2022/06/26 01:07:48;;;;;;;0.60;0.60;;;19.20;99.90;;;;;;4996074;28;20492;-80
2022/06/26 01:10:15;;;;;;;0.50;0.50;;;19.20;99.90;;;;;;4996433;28;20449;-80
2022/06/26 01:12:42;;;;;;;0.40;0.30;;;19.20;99.90;;;;;;4996372;28;20472;-80
2022/06/26 01:15:11;;;;;;;0.50;0.50;;;19.20;99.90;;;;;;4996058;28;20456;-80
2022/06/26 01:17:37;;;;;;;0.40;0.40;;;19.20;99.90;;;;;;4996083;28;20792;-80
2022/06/26 01:20:06;;;;;;;0.60;0.60;;;19.10;99.90;;;;;;4996281;28;20467;-80
2022/06/26 01:22:34;;;;;;;0.40;0.40;;;19.20;99.90;;;;;;4995997;28;20440;-80
2022/06/26 01:25:01;;;;;;;0.60;0.60;;;19.20;99.90;;;;;;4996404;28;20484;-80
2022/06/26 01:27:28;;;;;;;0.40;0.40;;;19.10;99.90;;;;;;4996137;28;20457;-80
2022/06/26 01:29:55;;;;;;;0.53;0.50;;;19.00;99.90;;;;;;4995991;28;20492;-80
2022/06/26 01:32:22;;;;;;;0.50;0.47;;;18.90;99.90;;;;;;4996024;28;20456;-80
2022/06/26 01:34:49;;;;;;;0.70;0.50;;;18.90;99.90;;;;;;4995947;28;20449;-80
2022/06/26 01:37:15;;;;;;;0.50;0.50;;;18.90;99.90;;;;;;4995809;28;20457;-80
2022/06/26 01:39:43;;;;;;;0.60;0.50;;;18.80;99.90;;;;;;4995941;28;20504;-80
2022/06/26 01:42:10;;;;;;;1.17;0.60;;;18.80;99.90;;;;;;4995869;28;20453;-80
2022/06/26 01:44:37;;;;;;;0.60;0.60;;;18.80;99.90;;;;;;4995740;28;20463;-80
2022/06/26 01:47:04;;;;;;;0.50;0.50;;;18.80;99.90;;;;;;4995530;28;20447;-80
2022/06/26 01:49:31;;;;;;;1.17;0.53;;;18.70;99.90;;;;;;4995349;28;20480;-80
2022/06/26 01:51:58;;;;;;;0.73;0.63;;;18.70;99.90;;;;;;4995728;28;20795;-80
2022/06/26 01:54:24;;;;;;;0.50;0.50;;;18.70;99.90;;;;;;4995384;28;20803;-80
2022/06/26 01:56:52;;;;;;;0.40;0.40;;;18.70;99.90;;;;;;4995527;28;20480;-81
2022/06/26 01:59:19;;;;;;;0.77;0.57;;;18.70;99.90;;;;;;4995553;28;20525;-80
2022/06/26 02:01:46;;;;;;;0.53;0.50;;;18.70;99.90;;;;;;4996187;28;20461;-80
2022/06/26 02:04:16;;;;;;;0.97;0.50;;;18.60;99.90;;;;;;4995453;28;20849;-80
2022/06/26 02:06:43;;;;;;;0.60;0.50;;;18.60;99.90;;;;;;4995329;28;20483;-80
2022/06/26 02:13:36;;;;;;;0.40;0.30;;;18.60;99.90;;;;;;4994833;28;20496;-80
2022/06/26 02:14:42;;;;;;;2.10;0.60;;;18.60;99.90;;;;;;4994830;28;20519;-80
2022/06/26 02:17:08;;;;;;;0.90;0.50;;;18.50;99.90;;;;;;4995207;28;20826;-80
2022/06/26 02:19:35;;;;;;;0.90;0.67;;;18.50;99.90;;;;;;4995048;28;20457;-80
2022/06/26 02:22:02;;;;;;;0.50;0.50;;;18.50;99.90;;;;;;4994990;28;20444;-80
2022/06/26 02:24:29;;;;;;;0.40;0.40;;;18.50;99.90;;;;;;4995080;28;20520;-80
2022/06/26 02:26:55;;;;;;;0.70;0.40;;;18.40;99.90;;;;;;4994818;28;20483;-80
2022/06/26 02:29:24;;;;;;;0.53;0.53;;;18.40;99.90;;;;;;4995690;28;20493;-80
2022/06/26 02:31:50;;;;;;;0.50;0.50;;;18.40;99.90;;;;;;4994940;28;20439;-80
2022/06/26 02:34:17;;;;;;;0.50;0.43;;;18.30;99.90;;;;;;4994909;28;20460;-80
2022/06/26 02:36:44;;;;;;;0.50;0.50;;;18.20;99.90;;;;;;4994757;28;20565;-80
2022/06/26 02:39:11;;;;;;;0.87;0.70;;;18.20;99.90;;;;;;4994774;28;20452;-80
2022/06/26 02:41:37;;;;;;;0.87;0.77;;;18.20;99.90;;;;;;4994791;28;20452;-80
2022/06/26 02:44:05;;;;;;;0.50;0.50;;;18.20;99.90;;;;;;4994423;28;20451;-80
2022/06/26 02:46:33;;;;;;;2.30;0.80;;;18.20;99.90;;;;;;4994375;28;21047;-80
2022/06/26 02:49:00;;;;;;;0.50;0.50;;;18.20;99.90;;;;;;4993871;28;20483;-81
2022/06/26 02:51:26;;;;;;;0.60;0.50;;;18.20;99.90;;;;;;4994635;28;20928;-80
2022/06/26 02:53:53;;;;;;;0.90;0.57;;;18.20;99.90;;;;;;4994504;28;20453;-80
2022/06/26 02:56:20;;;;;;;0.90;0.60;;;18.20;99.90;;;;;;4994254;28;20468;-80
2022/06/26 02:58:47;;;;;;;0.57;0.40;;;18.20;99.90;;;;;;4994618;28;20461;-80
2022/06/26 03:01:13;;;;;;;0.70;0.70;;;18.20;99.90;;;;;;4994420;28;20463;-80
2022/06/26 03:03:41;;;;;;;0.43;0.43;;;18.20;99.90;;;;;;4994300;28;20523;-80
2022/06/26 03:06:08;;;;;;;0.97;0.70;;;18.20;99.90;;;;;;4994106;28;20464;-80
2022/06/26 03:08:35;;;;;;;0.50;0.50;;;18.20;99.90;;;;;;4993926;28;20495;-80
2022/06/26 03:11:02;;;;;;;0.70;0.50;;;18.20;99.90;;;;;;4994014;28;20440;-80
2022/06/26 03:13:29;;;;;;;0.70;0.53;;;18.20;99.90;;;;;;4994345;28;20812;-80
2022/06/26 03:15:55;;;;;;;0.43;0.43;;;18.20;99.90;;;;;;4994267;28;20484;-80
2022/06/26 03:18:22;;;;;;;1.03;0.40;;;18.10;99.90;;;;;;4994179;28;20460;-80
2022/06/26 03:20:50;;;;;;;0.57;0.50;;;18.10;99.90;;;;;;4993842;28;20795;-80
2022/06/26 03:23:17;;;;;;;0.70;0.43;;;18.10;99.90;;;;;;4994144;28;20943;-80
2022/06/26 03:25:44;;;;;;;0.60;0.60;;;18.10;99.90;;;;;;4994033;28;20472;-80
2022/06/26 03:28:11;;;;;;;0.40;0.40;;;18.00;99.90;;;;;;4993737;28;20958;-80
2022/06/26 03:30:37;;;;;;;0.47;0.47;;;18.00;99.90;;;;;;4993744;28;20987;-80
2022/06/26 03:33:04;;;;;;;0.70;0.50;;;18.00;99.90;;;;;;4993719;28;20918;-80
2022/06/26 03:35:31;;;;;;;0.50;0.50;;;18.00;99.90;;;;;;4993934;28;20464;-80
2022/06/26 03:37:59;;;;;;;0.60;0.60;;;18.00;99.90;;;;;;4993701;28;20437;-80
2022/06/26 03:40:26;;;;;;;0.77;0.53;;;18.00;99.90;;;;;;4994130;28;20441;-80
2022/06/26 03:42:52;;;;;;;1.33;0.83;;;18.00;99.90;;;;;;4993600;28;20948;-80
2022/06/26 03:45:19;;;;;;;0.50;0.50;;;18.00;99.90;;;;;;4993840;28;20476;-80
2022/06/26 03:47:46;;;;;;;1.33;0.63;;;18.00;99.90;;;;;;4993800;28;20444;-80
2022/06/26 03:50:13;;;;;;;0.40;0.40;;;18.10;99.90;;;;;;4993864;28;20843;-80
2022/06/26 03:52:40;;;;;;;0.40;0.40;;;18.10;99.90;;;;;;4993547;28;20460;-80
2022/06/26 03:55:08;;;;;;;0.80;0.50;;;18.10;99.90;;;;;;4993740;28;20479;-80
2022/06/26 03:57:35;;;;;;;0.40;0.40;;;18.20;99.90;;;;;;4994107;28;20451;-80
2022/06/26 04:00:02;;;;;;;0.50;0.40;;;18.20;99.90;;;;;;4994488;28;20456;-80
2022/06/26 04:02:29;;;;;;;0.80;0.70;;;18.20;99.90;;;;;;4997704;28;20483;-80
2022/06/26 04:04:55;;;;;;;0.90;0.60;;;18.20;99.90;;;;;;4997243;28;20483;-80
2022/06/26 04:07:23;;;;;;;0.40;0.40;;;18.20;99.90;;;;;;4997204;28;20468;-80
2022/06/26 04:09:49;;;;;;;0.97;0.50;;;18.20;99.90;;;;;;4997487;28;20546;-80
2022/06/26 04:12:17;;;;;;;0.77;0.40;;;18.20;99.90;;;;;;4997671;28;20471;-80
2022/06/26 04:14:44;;;;;;;0.53;0.40;;;18.20;99.90;;;;;;4997141;28;20447;-80
2022/06/26 04:17:11;;;;;;;0.50;0.50;;;18.20;99.90;;;;;;4997362;28;20464;-80
2022/06/26 04:19:38;;;;;;;0.60;0.60;;;18.10;99.90;;;;;;4997143;28;20449;-80
2022/06/26 04:22:05;;;;;;;0.70;0.70;;;18.10;99.90;;;;;;4997029;28;20448;-80
2022/06/26 04:24:32;;;;;;;0.53;0.50;;;18.10;99.90;;;;;;4998000;28;20819;-80
2022/06/26 04:26:59;;;;;;;0.40;0.40;;;18.10;99.90;;;;;;4997233;28;20448;-80
2022/06/26 04:29:27;;;;;;;0.70;0.50;;;18.10;99.90;;;;;;4996944;28;20480;-80
2022/06/26 04:31:54;;;;;;;0.40;0.40;;;18.00;99.90;;;;;;4997220;28;20459;-80
2022/06/26 04:34:20;;;;;;;1.23;0.50;;;18.00;99.90;;;;;;4996882;28;20433;-80
2022/06/26 04:36:47;;;;;;;1.37;0.63;;;18.00;99.90;;;;;;4996682;28;20845;-80
2022/06/26 04:39:14;;;;;;;0.50;0.50;;;17.90;99.90;;;;;;4996806;28;20495;-80
2022/06/26 04:41:41;;;;;;;0.60;0.60;;;17.90;99.90;;;;;;4996891;28;20456;-80
2022/06/26 04:44:09;;;;;;;0.70;0.50;;;18.00;99.90;;;;;;4996954;28;20523;-80
2022/06/26 04:46:39;;;;;;;0.77;0.77;;;18.00;99.90;;;;;;4996604;28;20452;-80
2022/06/26 04:49:07;;;;;;;0.70;0.70;;;18.10;99.90;;;;;;4996853;28;20482;-80
2022/06/26 04:51:35;;;;;;;0.70;0.70;;;18.20;99.90;;;;;;4996804;28;20454;-80
2022/06/26 04:54:02;;;;;;;1.03;0.53;;;18.30;99.90;;;;;;4997040;28;20463;-80
2022/06/26 04:56:30;;;;;;;0.60;0.60;;;18.30;99.90;;;;;;4996526;28;20992;-80
2022/06/26 04:58:57;;;;;;;0.50;0.50;;;18.40;99.90;;;;;;4996756;28;20448;-80
2022/06/26 05:01:24;;;;;;;0.83;0.50;;;18.50;99.90;;;;;;4996680;28;20453;-80
2022/06/26 05:03:52;;;;;;;0.67;0.67;;;18.50;99.90;;;;;;4996297;28;20456;-80
2022/06/26 05:06:19;;;;;;;0.50;0.50;;;18.50;99.90;;;;;;4996467;28;20479;-80
2022/06/26 05:08:46;;;;;;;3.03;0.63;;;18.60;99.90;;;;;;4996086;28;20495;-80
2022/06/26 05:11:13;;;;;;;1.37;0.60;;;18.60;99.90;;;;;;4995864;28;20500;-80
2022/06/26 05:13:40;;;;;;;0.73;0.50;;;18.60;99.90;;;;;;4996402;28;20463;-80
2022/06/26 05:16:07;;;;;;;0.50;0.50;;;18.70;99.90;;;;;;4996332;28;20476;-80
2022/06/26 05:18:34;;;;;;;0.60;0.57;;;18.70;99.90;;;;;;4996330;28;20460;-80
2022/06/26 05:21:02;;;;;;;0.70;0.40;;;18.70;99.90;;;;;;4996320;28;20460;-80
2022/06/26 05:23:29;;;;;;;0.97;0.53;;;18.70;99.90;;;;;;4996229;28;20456;-80
2022/06/26 05:25:56;;;;;;;0.90;0.63;;;18.60;99.90;;;;;;4996109;28;20469;-80
2022/06/26 05:28:23;;;;;;;0.60;0.57;;;18.60;99.90;;;;;;4995823;28;20949;-80
2022/06/26 05:30:50;;;;;;;2.50;0.90;;;18.60;99.90;;;;;;4996061;28;20495;-80
2022/06/26 05:33:17;;;;;;;0.50;0.50;;;18.60;99.90;;;;;;4995827;28;20436;-81
2022/06/26 05:35:44;;;;;;;0.50;0.50;;;18.70;99.90;;;;;;4995963;28;20472;-80
2022/06/26 05:38:12;;;;;;;0.40;0.40;;;18.80;99.90;;;;;;4995953;28;20459;-80
2022/06/26 05:40:39;;;;;;;0.70;0.70;;;18.90;99.90;;;;;;4995913;28;20444;-80
2022/06/26 05:43:06;;;;;;;0.70;0.50;;;18.90;99.90;;;;;;4995633;28;20441;-80
2022/06/26 05:45:32;;;;;;;0.60;0.60;;;19.00;99.90;;;;;;4995524;28;20459;-80
2022/06/26 05:48:00;;;;;;;1.90;0.83;;;19.00;99.90;;;;;;4995808;28;20464;-80
2022/06/26 05:50:26;;;;;;;0.80;0.53;;;19.00;99.90;;;;;;4995642;28;20530;-80
2022/06/26 05:52:53;;;;;;;1.70;0.90;;;18.90;99.90;;;;;;4995728;28;20463;-80
2022/06/26 05:55:21;;;;;;;0.90;0.70;;;18.90;99.90;;;;;;4995317;28;20995;-80
2022/06/26 05:57:48;;;;;;;0.60;0.57;;;19.00;99.90;;;;;;4995380;28;20780;-80
2022/06/26 06:00:15;;;;;;;0.63;0.63;;;19.10;99.90;;;;;;4995571;28;20464;-80
2022/06/26 06:02:42;;;;;;;0.70;0.70;;;19.20;99.90;;;;;;4995239;28;20452;-80
2022/06/26 06:05:10;;;;;;;1.60;0.83;;;19.40;99.90;;;;;;4995178;28;20492;-80
2022/06/26 06:07:37;;;;;;;0.70;0.60;;;19.50;99.90;;;;;;4995150;28;20484;-80
2022/06/26 06:10:04;;;;;;;0.50;0.50;;;19.70;99.90;;;;;;4995962;28;20491;-80
2022/06/26 06:12:33;;;;;;;0.50;0.50;;;20.00;99.90;;;;;;4996186;28;20452;-80
2022/06/26 06:15:00;;;;;;;0.77;0.77;;;20.40;99.90;;;;;;4995289;28;20476;-80
2022/06/26 06:17:40;;;;;;;0.50;0.50;;;20.70;99.90;;;;;;4994990;28;20471;-80
2022/06/26 06:20:10;;;;;;;0.60;0.60;;;21.10;99.90;;;;;;4995207;28;20435;-80
2022/06/26 06:22:36;;;;;;;0.70;0.70;;;21.60;99.90;;;;;;4994773;28;20800;-80
2022/06/26 06:25:03;;;;;;;0.57;0.50;;;22.10;99.90;;;;;;4994965;28;20216;-80
2022/06/26 06:27:30;;;;;;;0.60;0.60;;;22.70;99.90;;;;;;4994829;28;20197;-81
2022/06/26 06:29:58;;;;;;;0.70;0.60;;;23.00;99.90;;;;;;4994720;28;20216;-80
2022/06/26 06:32:25;;;;;;;0.60;0.60;;;23.50;99.90;;;;;;4995003;28;20207;-81
2022/06/26 06:34:52;;;;;;;0.90;0.60;;;23.90;99.90;;;;;;4994886;28;20215;-80
2022/06/26 06:37:19;;;;;;;0.60;0.60;;;24.40;99.90;;;;;;4994902;28;20638;-81
2022/06/26 06:39:46;;;;;;;0.60;0.60;;;24.90;99.90;;;;;;4995255;28;20209;-81
2022/06/26 06:42:13;;;;;;;0.50;0.50;;;25.00;99.90;;;;;;4994568;28;20699;-81
2022/06/26 06:44:40;;;;;;;0.70;0.70;;;25.10;99.90;;;;;;4994432;28;20197;-81
2022/06/26 06:47:08;;;;;;;0.65;0.65;;;25.10;99.90;;;;;;4994498;28;20193;-80
2022/06/26 06:49:35;;;;;;;0.70;0.60;;;25.30;99.90;;;;;;4994283;28;20208;-80
2022/06/26 06:52:02;;;;;;;0.70;0.70;;;25.10;99.90;;;;;;4994874;28;20217;-80
2022/06/26 06:54:29;;;;;;;0.50;0.50;;;25.00;99.90;;;;;;4994592;28;20204;-80
2022/06/26 06:56:56;;;;;;;0.60;0.60;;;24.70;99.90;;;;;;4994145;28;20228;-80
2022/06/26 06:59:23;;;;;;;0.60;0.55;;;24.80;99.90;;;;;;4994538;28;20216;-80
2022/06/26 07:01:50;;;;;;;0.77;0.77;;;24.70;99.90;;;;;;4994163;28;20208;-80
2022/06/26 07:04:18;;;;;;;0.70;0.70;;;24.50;99.90;;;;;;4994168;28;20205;-80
2022/06/26 07:06:45;;;;;;;0.50;0.50;;;24.40;99.90;;;;;;4994056;28;20231;-80
2022/06/26 07:09:13;;;;;;;0.60;0.60;;;24.50;99.90;;;;;;4993940;28;20243;-80
2022/06/26 07:11:40;;;;;;;0.60;0.60;;;24.40;99.90;;;;;;4993959;28;20224;-80
2022/06/26 07:14:07;;;;;;;0.60;0.60;;;24.40;99.90;;;;;;4994276;28;20300;-80
2022/06/26 07:16:33;;;;;;;0.40;0.40;;;24.40;99.90;;;;;;4994147;28;20228;-80
2022/06/26 07:19:00;;;;;;;0.57;0.57;;;24.30;99.90;;;;;;4994054;28;20208;-80
2022/06/26 07:21:28;;;;;;;5.15;0.88;;;24.30;99.90;;;;;;4993988;28;20209;-80
2022/06/26 07:23:55;;;;;;;0.45;0.45;;;24.30;99.90;;;;;;4993899;28;20197;-80
2022/06/26 07:26:22;;;;;;;0.80;0.80;;;24.30;99.90;;;;;;4994035;28;20235;-80
2022/06/26 07:28:49;;;;;;;1.10;0.77;;;24.40;99.90;;;;;;4993854;28;20192;-80
2022/06/26 07:31:16;;;;;;;0.93;0.60;;;24.40;99.90;;;;;;4993990;28;20220;-80
2022/06/26 07:36:28;;;;;;;0.63;0.60;;;24.70;99.90;;;;;;4994064;28;20220;-80
2022/06/26 07:38:55;;;;;;;0.70;0.68;;;24.80;99.90;;;;;;4993997;28;20299;-80
2022/06/26 07:41:22;;;;;;;0.80;0.77;;;25.00;99.90;;;;;;4994246;28;20251;-80
2022/06/26 07:43:49;;;;;;;0.60;0.60;;;25.10;99.90;;;;;;4993930;28;20676;-80
2022/06/26 07:46:15;;;;;;;0.60;0.60;;;25.30;99.90;;;;;;4993557;28;20596;-80
2022/06/26 07:48:42;;;;;;;0.40;0.40;;;25.50;99.90;;;;;;4993881;28;20216;-80
2022/06/26 07:51:09;;;;;;;0.80;0.50;;;25.70;99.90;;;;;;4993795;28;20231;-80
2022/06/26 07:53:37;;;;;;;0.88;0.77;;;26.10;99.90;;;;;;4993855;28;20220;-80
2022/06/26 07:56:04;;;;;;;0.70;0.70;;;26.60;99.90;;;;;;4993797;28;20221;-80
2022/06/26 07:58:31;;;;;;;0.60;0.60;;;26.80;99.90;;;;;;4993789;28;20205;-80
2022/06/26 08:00:58;;;;;;;0.60;0.60;;;27.10;99.90;;;;;;4993752;28;20208;-80
2022/06/26 08:03:25;;;;;;;0.50;0.50;;;27.10;99.90;;;;;;4993771;28;20204;-80
2022/06/26 08:05:52;;;;;;;0.77;0.50;;;26.90;99.90;;;;;;4993489;28;20213;-79
2022/06/26 08:08:18;;;;;;;0.60;0.60;;;27.10;99.90;;;;;;4993375;28;20233;-80
2022/06/26 08:10:46;;;;;;;0.60;0.60;;;27.00;99.90;;;;;;4993436;28;20232;-79
2022/06/26 08:13:13;;;;;;;0.68;0.60;;;27.00;99.90;;;;;;4993470;28;20196;-80
2022/06/26 08:15:40;;;;;;;0.47;0.47;;;27.10;99.90;;;;;;4993574;28;20224;-80
2022/06/26 08:18:07;;;;;;;1.67;0.60;;;27.30;99.90;;;;;;4993655;28;20205;-80
2022/06/26 08:20:34;;;;;;;0.50;0.50;;;27.60;99.90;;;;;;4993673;28;20240;-80
2022/06/26 08:23:01;;;;;;;0.50;0.50;;;27.90;99.90;;;;;;4993350;28;20213;-80
2022/06/26 08:25:27;;;;;;;0.52;0.52;;;28.20;99.90;;;;;;4994057;28;20250;-80
2022/06/26 08:27:56;;;;;;;1.02;0.57;;;28.30;99.90;;;;;;4993531;28;20200;-80
2022/06/26 08:30:23;;;;;;;0.75;0.50;;;28.50;99.50;;;;;;4993495;28;20222;-80
2022/06/26 08:32:49;;;;;;;2.35;0.55;;;28.80;98.60;;;;;;4993411;28;20205;-81
2022/06/26 08:35:16;;;;;;;0.60;0.60;;;28.80;98.50;;;;;;4993132;28;20751;-80
2022/06/26 08:37:45;;;;;;;0.50;0.50;;;29.20;96.50;;;;;;4993182;28;20576;-80
2022/06/26 08:40:12;;;;;;;0.40;0.40;;;29.30;95.30;;;;;;4993426;28;20294;-80
2022/06/26 08:42:41;;;;;;;0.50;0.50;;;29.20;95.80;;;;;;4993310;28;20211;-80
2022/06/26 08:45:12;;;;;;;0.82;0.50;;;29.00;95.80;;;;;;4993464;28;20222;-80
2022/06/26 08:47:39;;;;;;;0.50;0.50;;;28.80;94.80;;;;;;4996824;28;20597;-81
2022/06/26 08:50:08;;;;;;;0.80;0.80;;;28.90;94.40;;;;;;4996803;28;20626;-81
2022/06/26 08:52:35;;;;;;;0.60;0.60;;;28.80;93.80;;;;;;4996890;28;20672;-80
2022/06/26 08:55:03;;;;;;;0.50;0.50;;;29.10;93.40;;;;;;4996729;28;20231;-80
2022/06/26 08:57:30;;;;;;;0.80;0.60;;;29.00;94.70;;;;;;4996372;28;20636;-80
2022/06/26 08:59:57;;;;;;;1.25;0.57;;;28.80;95.60;;;;;;4996440;28;20198;-80
2022/06/26 09:02:25;;;;;;;0.65;0.65;;;28.80;94.00;;;;;;4997042;28;20186;-80
2022/06/26 09:04:52;;;;;;;0.60;0.50;;;28.80;94.20;;;;;;4996516;28;20216;-80
2022/06/26 09:07:19;;;;;;;0.60;0.60;;;28.90;94.70;;;;;;4996364;28;20240;-80
2022/06/26 09:09:46;;;;;;;0.65;0.50;;;29.20;94.20;;;;;;4996581;28;20197;-80
2022/06/26 09:12:13;;;;;;;0.50;0.50;;;29.20;94.20;;;;;;4996418;28;20594;-80
2022/06/26 09:14:40;;;;;;;0.65;0.65;;;29.00;93.30;;;;;;4997092;28;20203;-80
2022/06/26 09:17:06;;;;;;;0.40;0.40;;;28.70;94.40;;;;;;4996170;28;20207;-80
2022/06/26 09:19:36;;;;;;;0.65;0.65;;;28.70;95.70;;;;;;4996389;28;20191;-80
2022/06/26 09:22:09;;;;;;;0.73;0.52;;;28.60;96.60;;;;;;4996260;28;20225;-80
2022/06/26 09:24:37;;;;;;;0.50;0.50;;;28.60;94.70;;;;;;4996043;28;20701;-80
2022/06/26 09:27:06;;;;;;;0.60;0.60;;;28.50;94.20;;;;;;4996127;28;20261;-80
2022/06/26 09:29:33;;;;;;;0.50;0.50;;;28.40;93.40;;;;;;4996127;28;20205;-80
2022/06/26 09:32:09;;;;;;;0.60;0.50;;;28.30;93.70;;;;;;4996273;28;20235;-79
2022/06/26 09:34:37;;;;;;;0.65;0.65;;;28.10;93.90;;;;;;4995998;28;20300;-80
2022/06/26 09:37:06;;;;;;;0.63;0.63;;;27.90;94.20;;;;;;4995713;28;20215;-80
2022/06/26 09:39:35;;;;;;;0.60;0.60;;;27.60;94.70;;;;;;4995735;28;20196;-79
2022/06/26 09:42:16;;;;;;;0.52;0.52;;;27.40;96.20;;;;;;4995713;28;20205;-80
2022/06/26 09:44:44;;;;;;;0.70;0.70;;;27.20;96.60;;;;;;4995878;28;20259;-80
2022/06/26 09:47:23;;;;;;;0.70;0.70;;;27.40;95.50;;;;;;4995845;28;20657;-80
2022/06/26 09:49:53;;;;;;;0.60;0.50;;;27.40;95.60;;;;;;4995927;28;20189;-80
2022/06/26 09:52:22;;;;;;;0.60;0.60;;;27.40;95.50;;;;;;4995371;28;20692;-80
2022/06/26 09:54:49;;;;;;;0.50;0.50;;;27.40;95.90;;;;;;4995604;28;20208;-80
2022/06/26 09:57:17;;;;;;;0.80;0.80;;;27.40;96.30;;;;;;4995272;28;20687;-80
2022/06/26 09:59:44;;;;;;;0.60;0.60;;;27.40;97.70;;;;;;4995577;28;20212;-80
2022/06/26 10:08:04;;;;;;;1.23;0.55;;;27.50;96.50;;;;;;4935162;29;20281;-80
2022/06/26 10:10:33;;;;;;;0.55;0.55;;;27.40;97.70;;;;;;4935406;29;20281;-80
2022/06/26 10:13:02;;;;;;;0.70;0.70;;;27.40;97.20;;;;;;4963384;28;20209;-80
2022/06/26 10:15:34;;;;;;;0.50;0.50;;;27.40;97.60;;;;;;4995227;28;20229;-80
2022/06/26 10:18:23;;;;;;;0.60;0.60;;;27.30;96.70;;;;;;4995335;28;20189;-80
2022/06/26 10:20:53;;;;;;;0.52;0.52;;;27.20;96.30;;;;;;4995259;28;20185;-80
2022/06/26 10:23:33;;;;;;;0.50;0.50;;;27.30;96.30;;;;;;4995197;28;20208;-79
2022/06/26 10:26:10;;;;;;;0.50;0.50;;;27.30;96.30;;;;;;4994783;28;20734;-79
2022/06/26 10:28:37;;;;;;;0.60;0.60;;;27.20;97.20;;;;;;4994801;28;20574;-80
2022/06/26 10:31:07;;;;;;;0.88;0.60;;;27.30;95.40;;;;;;4994954;28;20228;-79
2022/06/26 10:33:34;;;;;;;0.55;0.55;;;27.10;96.30;;;;;;4995241;28;20208;-79
2022/06/26 10:36:02;;;;;;;0.60;0.60;;;27.20;97.40;;;;;;4994833;28;20233;-79
2022/06/26 10:38:30;;;;;;;0.65;0.50;;;27.30;96.80;;;;;;4995148;28;20193;-79
2022/06/26 10:44:02;;;;;;;0.60;0.52;;;27.30;96.80;;;;;;4995173;28;20184;-80
2022/06/26 10:46:37;;;;;;;0.65;0.65;;;27.30;95.10;;;;;;4994747;28;20224;-80
2022/06/26 10:49:06;;;;;;;0.60;0.60;;;27.10;95.90;;;;;;4994769;28;20196;-79
2022/06/26 10:51:38;;;;;;;0.55;0.55;;;27.00;96.70;;;;;;4994352;28;20221;-79
2022/06/26 10:54:16;;;;;;;0.55;0.50;;;26.90;97.00;;;;;;4994451;28;20192;-79
2022/06/26 10:56:43;;;;;;;1.30;0.50;;;26.80;96.10;;;;;;4994545;28;20225;-79
2022/06/26 10:59:10;;;;;;;0.45;0.45;;;26.90;96.70;;;;;;4994237;28;20672;-79
2022/06/26 11:01:37;;;;;;;0.50;0.50;;;26.80;97.00;;;;;;4995190;28;20567;-79
2022/06/26 11:04:04;;;;;;;1.60;0.50;;;26.70;96.50;;;;;;4994210;28;20197;-78
2022/06/26 11:06:31;;;;;;;0.50;0.50;;;26.80;97.00;;;;;;4994214;28;20224;-79
2022/06/26 11:09:01;;;;;;;0.63;0.47;;;27.10;97.20;;;;;;4993676;28;20240;-79
2022/06/26 11:11:31;;;;;;;0.50;0.50;;;27.20;96.80;;;;;;4994306;28;20209;-79
2022/06/26 11:14:00;;;;;;;0.95;0.60;;;27.20;96.00;;;;;;4994362;28;20280;-79
2022/06/26 11:16:32;;;;;;;0.50;0.50;;;27.00;96.80;;;;;;4993897;28;20720;-79
2022/06/26 11:18:59;;;;;;;0.65;0.60;;;27.00;97.70;;;;;;4993927;28;20672;-79
2022/06/26 11:21:26;;;;;;;0.52;0.52;;;27.10;98.60;;;;;;4994237;28;20223;-79
2022/06/26 11:23:54;;;;;;;0.50;0.50;;;27.10;97.70;;;;;;4994165;28;20209;-79
2022/06/26 11:26:23;;;;;;;0.60;0.60;;;27.40;96.80;;;;;;4993803;28;20239;-79
2022/06/26 11:28:55;;;;;;;0.60;0.60;;;27.20;96.00;;;;;;4994374;28;20648;-80
2022/06/26 11:31:23;;;;;;;0.75;0.50;;;27.40;97.20;;;;;;4993762;28;20685;-80
2022/06/26 11:33:51;;;;;;;0.50;0.50;;;27.50;96.50;;;;;;4995077;28;20212;-79
2022/06/26 11:36:18;;;;;;;0.85;0.70;;;27.40;97.20;;;;;;4993668;28;20728;-79
2022/06/26 11:38:50;;;;;;;0.50;0.50;;;27.60;96.20;;;;;;4993774;28;20208;-80
2022/06/26 11:41:18;;;;;;;0.50;0.50;;;27.50;95.90;;;;;;4993672;28;20696;-79
2022/06/26 11:43:47;;;;;;;0.50;0.50;;;27.40;96.70;;;;;;4993996;28;20283;-79
2022/06/26 11:46:15;;;;;;;0.47;0.47;;;27.20;95.80;;;;;;4993735;28;20224;-79
2022/06/26 11:48:42;;;;;;;0.50;0.50;;;27.10;96.90;;;;;;4993637;28;20200;-79
2022/06/26 11:51:13;;;;;;;1.05;0.45;;;27.00;97.40;;;;;;4993540;28;20699;-79
2022/06/26 11:53:42;;;;;;;0.80;0.50;;;27.00;97.50;;;;;;4993931;28;20211;-79
2022/06/26 11:56:09;;;;;;;0.40;0.40;;;26.90;96.30;;;;;;4993776;28;20704;-79
2022/06/26 11:58:36;;;;;;;0.52;0.52;;;26.80;97.80;;;;;;4993851;28;20204;-79
2022/06/26 12:01:06;;;;;;;0.50;0.50;;;26.70;97.70;;;;;;4993767;28;20205;-79
2022/06/26 12:03:33;;;;;;;0.43;0.43;;;26.60;99.10;;;;;;4993870;28;20189;-79
2022/06/26 12:06:00;;;;;;;0.50;0.50;;;26.70;99.30;;;;;;4993735;28;20236;-79
2022/06/26 12:08:30;;;;;;;0.50;0.50;;;26.70;99.40;;;;;;4993607;28;20654;-78
2022/06/26 12:10:57;;;;;;;0.60;0.60;;;26.70;98.50;;;;;;4993750;28;20209;-78
2022/06/26 12:13:29;;;;;;;0.55;0.55;;;26.60;99.80;;;;;;4993997;28;20225;-78
2022/06/26 12:16:02;;;;;;;0.47;0.47;;;26.70;98.10;;;;;;4994114;28;20316;-79
2022/06/26 12:18:30;;;;;;;0.60;0.60;;;26.60;99.30;;;;;;4994594;28;20192;-78
2022/06/26 12:20:57;;;;;;;0.70;0.52;;;26.50;99.90;;;;;;4993915;28;20578;-78
2022/06/26 12:23:32;;;;;;;0.40;0.40;;;26.50;99.70;;;;;;4997556;28;20696;-79
2022/06/26 12:26:07;;;;;;;0.50;0.50;;;26.50;99.40;;;;;;4998132;28;20217;-79
2022/06/26 12:28:34;;;;;;;0.50;0.50;;;26.50;98.90;;;;;;4997777;28;20746;-78
2022/06/26 12:31:01;;;;;;;0.60;0.60;;;26.50;99.90;;;;;;4998055;28;20204;-79
2022/06/26 12:33:27;;;;;;;0.45;0.45;;;26.30;99.90;;;;;;4997400;28;20274;-80
2022/06/26 12:35:55;;;;;;;0.50;0.50;;;26.30;99.90;;;;;;4997312;28;20231;-79
2022/06/26 12:38:26;;;;;;;0.50;0.50;;;26.40;98.80;;;;;;4997215;28;20216;-79
2022/06/26 12:40:53;;;;;;;0.50;0.50;;;26.30;99.30;;;;;;4997330;28;20208;-79
2022/06/26 12:43:20;;;;;;;1.20;0.60;;;26.20;99.50;;;;;;4997091;28;20207;-79
2022/06/26 12:45:47;;;;;;;2.25;0.60;;;26.10;99.90;;;;;;4996946;28;20221;-79
2022/06/26 12:48:14;;;;;;;1.00;0.77;;;26.10;99.90;;;;;;4997266;28;20205;-79
2022/06/26 12:50:41;;;;;;;2.28;0.80;;;26.10;99.90;;;;;;4996659;28;20687;-78
2022/06/26 12:53:09;;;;;;;0.82;0.82;;;26.10;99.20;;;;;;4998500;28;20704;-79
2022/06/26 12:55:36;;;;;;;0.88;0.70;;;26.10;99.30;;;;;;4999577;28;20716;-79
2022/06/26 12:58:03;;;;;;;0.85;0.85;;;26.00;98.60;;;;;;4999551;28;20227;-79
2022/06/26 13:00:30;;;;;;;0.52;0.52;;;25.90;99.00;;;;;;5000887;28;20216;-79
2022/06/26 13:02:57;;;;;;;0.65;0.65;;;25.90;99.00;;;;;;5000263;28;20211;-79
2022/06/26 13:05:24;;;;;;;0.60;0.60;;;25.80;99.40;;;;;;5000176;28;20235;-79